createdAt,value
2018-01-14T00:00:55.166Z,0.8
2018-01-14T00:01:59.589Z,0.9
2018-01-14T00:03:03.053Z,0.9
2018-01-14T00:04:06.487Z,0.9
2018-01-14T00:05:10.011Z,0.9
2018-01-14T00:06:13.922Z,0.9
2018-01-14T00:07:17.110Z,0.9
2018-01-14T00:08:20.536Z,0.9
2018-01-14T00:09:23.917Z,0.9
2018-01-14T00:10:27.400Z,0.9
2018-01-14T00:11:35.097Z,0.9
2018-01-14T00:12:40.678Z,0.9
2018-01-14T00:13:44.134Z,0.9
2018-01-14T00:14:47.410Z,0.9
2018-01-14T00:15:50.732Z,0.9
2018-01-14T00:16:54.684Z,0.9
2018-01-14T00:17:57.742Z,0.9
2018-01-14T00:19:01.817Z,0.9
2018-01-14T00:20:05.161Z,0.9
2018-01-14T00:21:09.061Z,0.9
2018-01-14T00:22:18.200Z,0.9
2018-01-14T00:23:23.770Z,0.9
2018-01-14T00:24:29.265Z,0.9
2018-01-14T00:25:33.629Z,0.9
2018-01-14T00:26:37.185Z,0.9
2018-01-14T00:27:42.463Z,0.9
2018-01-14T00:28:46.460Z,0.9
2018-01-14T00:29:49.723Z,0.9
2018-01-14T00:30:54.494Z,0.9
2018-01-14T00:31:57.790Z,0.9
2018-01-14T00:33:04.677Z,0.9
2018-01-14T00:34:11.265Z,0.9
2018-01-14T00:35:14.758Z,0.9
2018-01-14T00:36:18.828Z,0.8
2018-01-14T00:37:22.236Z,0.9
2018-01-14T00:38:25.631Z,0.8
2018-01-14T00:39:29.708Z,0.8
2018-01-14T00:40:35.973Z,0.8
2018-01-14T00:41:40.098Z,0.8
2018-01-14T00:42:43.438Z,0.9
2018-01-14T00:43:50.220Z,0.9
2018-01-14T00:44:56.356Z,0.8
2018-01-14T00:45:59.919Z,0.8
2018-01-14T00:47:05.471Z,0.7
2018-01-14T00:48:12.987Z,0.7
2018-01-14T00:49:16.242Z,0.7
2018-01-14T00:50:20.383Z,0.8
2018-01-14T00:51:26.475Z,0.8
2018-01-14T00:52:29.913Z,0.8
2018-01-14T00:53:33.350Z,0.8
2018-01-14T00:54:43.212Z,0.8
2018-01-14T00:55:51.045Z,0.6
2018-01-14T00:56:54.519Z,0.8
2018-01-14T00:57:59.970Z,0.8
2018-01-14T00:59:03.312Z,0.8
2018-01-14T01:00:09.487Z,0.7
2018-01-14T01:01:12.706Z,0.9
2018-01-14T01:02:16.558Z,0.7
2018-01-14T01:03:20.067Z,0.7
2018-01-14T01:04:23.394Z,0.7
2018-01-14T01:05:30.458Z,0.7
2018-01-14T01:06:33.827Z,0.7
2018-01-14T01:07:37.772Z,0.7
2018-01-14T01:08:41.222Z,0.7
2018-01-14T01:09:44.683Z,0.7
2018-01-14T01:10:48.119Z,0.8
2018-01-14T01:11:53.644Z,0.7
2018-01-14T01:12:57.038Z,0.8
2018-01-14T01:14:00.536Z,0.7
2018-01-14T01:15:04.065Z,0.8
2018-01-14T01:16:12.368Z,0.8
2018-01-14T01:17:15.517Z,0.8
2018-01-14T01:18:20.006Z,0.8
2018-01-14T01:19:23.302Z,0.8
2018-01-14T01:20:26.729Z,0.8
2018-01-14T01:21:30.140Z,0.7
2018-01-14T01:22:35.631Z,0.7
2018-01-14T01:23:38.903Z,0.7
2018-01-14T01:24:45.994Z,0.7
2018-01-14T01:25:49.499Z,0.7
2018-01-14T01:26:56.749Z,0.7
2018-01-14T01:28:02.936Z,0.7
2018-01-14T01:29:06.239Z,0.7
2018-01-14T01:30:10.882Z,0.7
2018-01-14T01:31:14.280Z,0.7
2018-01-14T01:32:19.422Z,0.7
2018-01-14T01:33:23.014Z,0.7
2018-01-14T01:34:26.703Z,0.7
2018-01-14T01:35:30.076Z,0.8
2018-01-14T01:36:34.267Z,0.7
2018-01-14T01:37:41.283Z,0.8
2018-01-14T01:38:44.725Z,0.7
2018-01-14T01:39:49.706Z,0.7
2018-01-14T01:40:53.047Z,0.7
2018-01-14T01:41:57.133Z,0.7
2018-01-14T01:43:00.608Z,0.7
2018-01-14T01:44:06.168Z,0.7
2018-01-14T01:45:09.629Z,0.7
2018-01-14T01:46:16.816Z,0.7
2018-01-14T01:47:20.697Z,0.7
2018-01-14T01:48:28.641Z,0.7
2018-01-14T01:49:32.116Z,0.7
2018-01-14T01:50:36.177Z,0.7
2018-01-14T01:51:39.551Z,0.7
2018-01-14T01:52:43.556Z,0.7
2018-01-14T01:53:47.547Z,0.7
2018-01-14T01:54:51.247Z,0.6
2018-01-14T01:55:55.696Z,0.6
2018-01-14T01:56:59.054Z,0.6
2018-01-14T01:58:02.484Z,0.6
2018-01-14T01:59:10.010Z,0.6
2018-01-14T02:00:14.117Z,0.6
2018-01-14T02:01:17.507Z,0.7
2018-01-14T02:02:22.020Z,0.7
2018-01-14T02:03:27.552Z,0.7
2018-01-14T02:04:30.823Z,0.6
2018-01-14T02:05:34.144Z,0.6
2018-01-14T02:06:38.535Z,0.6
2018-01-14T02:07:42.792Z,0.6
2018-01-14T02:08:46.317Z,0.6
2018-01-14T02:09:54.534Z,0.6
2018-01-14T02:10:59.023Z,0.6
2018-01-14T02:12:03.295Z,0.5
2018-01-14T02:13:06.846Z,0.6
2018-01-14T02:14:10.743Z,0.6
2018-01-14T02:15:14.254Z,0.6
2018-01-14T02:16:17.718Z,0.6
2018-01-14T02:17:24.663Z,0.6
2018-01-14T02:18:30.328Z,0.5
2018-01-14T02:19:35.751Z,0.6
2018-01-14T02:20:43.680Z,0.5
2018-01-14T02:21:49.554Z,0.5
2018-01-14T02:22:54.455Z,0.6
2018-01-14T02:23:57.688Z,0.6
2018-01-14T02:25:01.164Z,0.6
2018-01-14T02:26:06.633Z,0.6
2018-01-14T02:27:11.956Z,0.6
2018-01-14T02:28:15.432Z,0.6
2018-01-14T02:29:18.702Z,0.6
2018-01-14T02:30:24.530Z,0.6
2018-01-14T02:31:35.275Z,0.6
2018-01-14T02:32:40.803Z,0.5
2018-01-14T02:33:44.131Z,0.6
2018-01-14T02:34:48.213Z,0.6
2018-01-14T02:35:51.604Z,0.6
2018-01-14T02:36:55.538Z,0.6
2018-01-14T02:37:58.826Z,0.6
2018-01-14T02:39:02.256Z,0.6
2018-01-14T02:40:07.336Z,0.6
2018-01-14T02:41:12.430Z,0.5
2018-01-14T02:42:20.861Z,0.5
2018-01-14T02:43:27.069Z,0.5
2018-01-14T02:44:30.333Z,0.5
2018-01-14T02:45:33.806Z,0.5
2018-01-14T02:46:37.604Z,0.5
2018-01-14T02:47:41.568Z,0.5
2018-01-14T02:48:46.568Z,0.3
2018-01-14T02:49:50.472Z,0.5
2018-01-14T02:50:55.328Z,0.5
2018-01-14T02:51:58.550Z,0.5
2018-01-14T02:53:06.579Z,0.5
2018-01-14T02:54:10.159Z,0.5
2018-01-14T02:55:16.480Z,0.5
2018-01-14T02:56:22.074Z,0.5
2018-01-14T02:57:25.530Z,0.5
2018-01-14T02:58:28.852Z,0.4
2018-01-14T02:59:35.647Z,0.4
2018-01-14T03:00:39.100Z,0.4
2018-01-14T03:01:44.653Z,0.3
2018-01-14T03:02:48.929Z,0.3
2018-01-14T03:03:56.785Z,0.4
2018-01-14T03:05:02.506Z,0.4
2018-01-14T03:06:06.089Z,0.4
2018-01-14T03:07:10.358Z,0.4
2018-01-14T03:08:14.647Z,0.4
2018-01-14T03:09:18.093Z,0.4
2018-01-14T03:10:22.533Z,0.4
2018-01-14T03:11:28.680Z,0.4
2018-01-14T03:12:34.481Z,0.4
2018-01-14T03:13:37.726Z,0.5
2018-01-14T03:14:45.857Z,0.4
2018-01-14T03:15:49.878Z,0.4
2018-01-14T03:16:53.915Z,0.5
2018-01-14T03:17:58.079Z,0.5
2018-01-14T03:19:03.555Z,0.5
2018-01-14T03:20:07.175Z,0.5
2018-01-14T03:21:10.955Z,0.5
2018-01-14T03:22:14.649Z,0.5
2018-01-14T03:23:18.060Z,0.4
2018-01-14T03:24:21.834Z,0.4
2018-01-14T03:25:30.883Z,0.4
2018-01-14T03:26:34.234Z,0.4
2018-01-14T03:27:39.896Z,0.4
2018-01-14T03:28:44.016Z,0.4
2018-01-14T03:29:48.316Z,0.4
2018-01-14T03:30:52.089Z,0.4
2018-01-14T03:31:58.648Z,0.5
2018-01-14T03:33:02.167Z,0.4
2018-01-14T03:34:08.493Z,0.4
2018-01-14T03:35:12.451Z,0.4
2018-01-14T03:36:19.282Z,0.3
2018-01-14T03:37:22.782Z,0.3
2018-01-14T03:38:27.583Z,0.3
2018-01-14T03:39:31.890Z,0.3
2018-01-14T03:40:38.976Z,0.3
2018-01-14T03:41:44.508Z,0.3
2018-01-14T03:42:48.182Z,0.3
2018-01-14T03:43:51.637Z,0.3
2018-01-14T03:44:55.044Z,0.3
2018-01-14T03:45:58.033Z,0.3
2018-01-14T03:47:06.104Z,0.3
2018-01-14T03:48:09.789Z,0.3
2018-01-14T03:49:13.157Z,0.2
2018-01-14T03:50:16.572Z,0.2
2018-01-14T03:51:19.842Z,0.2
2018-01-14T03:52:23.490Z,0.2
2018-01-14T03:53:27.031Z,0.2
2018-01-14T03:54:30.088Z,0.2
2018-01-14T03:55:33.500Z,0.2
2018-01-14T03:56:38.567Z,0.2
2018-01-14T03:57:48.101Z,0.2
2018-01-14T03:58:52.086Z,0.1
2018-01-14T03:59:57.803Z,0.2
2018-01-14T04:01:03.468Z,0.2
2018-01-14T04:02:06.899Z,0.1
2018-01-14T04:03:10.278Z,0.2
2018-01-14T04:04:13.661Z,0.2
2018-01-14T04:05:17.181Z,0.2
2018-01-14T04:06:20.938Z,0.2
2018-01-14T04:07:24.392Z,0.3
2018-01-14T04:08:32.713Z,0.2
2018-01-14T04:09:36.251Z,0.2
2018-01-14T04:10:39.580Z,0.2
2018-01-14T04:11:42.658Z,0.2
2018-01-14T04:12:46.096Z,0.2
2018-01-14T04:13:49.582Z,0.2
2018-01-14T04:14:53.543Z,0.2
2018-01-14T04:15:59.053Z,0.1
2018-01-14T04:17:02.185Z,0.1
2018-01-14T04:18:07.949Z,0.1
2018-01-14T04:19:19.199Z,0
2018-01-14T04:20:22.689Z,0
2018-01-14T04:21:29.075Z,0
2018-01-14T04:22:32.451Z,0
2018-01-14T04:23:38.874Z,0
2018-01-14T04:24:42.069Z,0
2018-01-14T04:25:45.406Z,0
2018-01-14T04:26:48.637Z,0.1
2018-01-14T04:27:52.104Z,0
2018-01-14T04:28:56.160Z,0
2018-01-14T04:30:05.863Z,0
2018-01-14T04:31:09.167Z,0
2018-01-14T04:32:13.475Z,0.1
2018-01-14T04:33:17.067Z,0.1
2018-01-14T04:34:20.491Z,0.2
2018-01-14T04:35:23.973Z,0.2
2018-01-14T04:36:28.651Z,0.1
2018-01-14T04:37:32.089Z,0.2
2018-01-14T04:38:35.619Z,0.1
2018-01-14T04:39:39.106Z,0.2
2018-01-14T04:40:46.994Z,0.1
2018-01-14T04:41:50.539Z,0
2018-01-14T04:42:55.768Z,0
2018-01-14T04:43:59.349Z,0.1
2018-01-14T04:45:02.796Z,0.1
2018-01-14T04:46:06.244Z,0.1
2018-01-14T04:47:09.674Z,0.1
2018-01-14T04:48:13.045Z,0.1
2018-01-14T04:49:16.633Z,0.1
2018-01-14T04:50:20.104Z,0.1
2018-01-14T04:51:27.648Z,0.1
2018-01-14T04:52:34.591Z,0.1
2018-01-14T04:53:38.711Z,0.1
2018-01-14T04:54:44.044Z,0.1
2018-01-14T04:55:48.777Z,0.1
2018-01-14T04:56:52.295Z,0.1
2018-01-14T04:57:56.276Z,0.1
2018-01-14T04:58:59.662Z,0.1
2018-01-14T05:00:03.230Z,0.1
2018-01-14T05:01:07.653Z,0.1
2018-01-14T05:05:45.760Z,0.1
2018-01-14T05:06:49.977Z,0.1
2018-01-14T05:07:54.266Z,0.1
2018-01-14T05:08:57.670Z,0.1
2018-01-14T05:10:04.149Z,0.1
2018-01-14T05:11:09.770Z,0.1
2018-01-14T05:12:14.502Z,0.1
2018-01-14T05:13:18.702Z,0.1
2018-01-14T05:14:25.057Z,0.1
2018-01-14T05:15:29.131Z,0.1
2018-01-14T05:16:39.516Z,0.1
2018-01-14T05:17:44.378Z,0.1
2018-01-14T05:18:47.700Z,0.1
2018-01-14T05:19:52.029Z,0.1
2018-01-14T05:20:55.367Z,0
2018-01-14T05:22:01.724Z,0
2018-01-14T05:23:05.618Z,0
2018-01-14T05:24:12.572Z,0
2018-01-14T05:25:16.813Z,0.1
2018-01-14T05:26:20.009Z,0.1
2018-01-14T05:27:28.169Z,0.1
2018-01-14T05:28:31.438Z,0.1
2018-01-14T05:29:35.325Z,0.2
2018-01-14T05:30:38.654Z,0.2
2018-01-14T05:31:41.955Z,0.2
2018-01-14T05:32:48.310Z,0.2
2018-01-14T05:33:52.427Z,0.2
2018-01-14T05:34:56.462Z,0.1
2018-01-14T05:36:02.268Z,0.1
2018-01-14T05:37:05.680Z,0.1
2018-01-14T05:38:14.887Z,0.2
2018-01-14T05:39:18.406Z,0.2
2018-01-14T05:40:23.873Z,0.1
2018-01-14T05:41:27.313Z,0.2
2018-01-14T05:42:31.206Z,0.2
2018-01-14T05:43:35.328Z,0.1
2018-01-14T05:44:38.918Z,0.1
2018-01-14T05:45:44.359Z,0.1
2018-01-14T05:46:48.369Z,0.1
2018-01-14T05:47:52.313Z,0.1
2018-01-14T05:49:00.043Z,0
2018-01-14T05:50:03.463Z,0
2018-01-14T05:51:06.952Z,0
2018-01-14T05:52:12.438Z,0
2018-01-14T05:53:18.335Z,0
2018-01-14T05:54:21.747Z,0
2018-01-14T05:55:26.249Z,0.1
2018-01-14T05:56:32.543Z,0.1
2018-01-14T05:57:35.858Z,0.1
2018-01-14T05:58:42.178Z,0
2018-01-14T05:59:49.279Z,0
2018-01-14T06:00:53.204Z,0
2018-01-14T06:01:57.477Z,0
2018-01-14T06:03:00.876Z,0
2018-01-14T06:04:04.309Z,0
2018-01-14T06:05:09.083Z,0
2018-01-14T06:06:12.511Z,0
2018-01-14T06:07:18.052Z,0
2018-01-14T06:08:22.020Z,0
2018-01-14T06:09:26.144Z,0.1
2018-01-14T06:10:34.593Z,-0.2
2018-01-14T06:11:39.024Z,0
2018-01-14T06:12:42.651Z,0
2018-01-14T06:13:48.012Z,0
2018-01-14T06:14:51.504Z,0
2018-01-14T06:15:55.664Z,0.1
2018-01-14T06:16:59.564Z,0.1
2018-01-14T06:18:04.153Z,0.1
2018-01-14T06:19:08.041Z,0.1
2018-01-14T06:20:12.284Z,0.1
2018-01-14T06:21:52.679Z,0
2018-01-14T06:22:58.549Z,0
2018-01-14T06:24:04.110Z,0.1
2018-01-14T06:25:08.189Z,0.1
2018-01-14T06:26:11.565Z,0.1
2018-01-14T06:27:16.900Z,0.1
2018-01-14T06:28:21.011Z,0.1
2018-01-14T06:29:24.390Z,0.2
2018-01-14T06:30:28.558Z,0.2
2018-01-14T06:31:34.673Z,0.1
2018-01-14T06:32:44.057Z,0.1
2018-01-14T06:33:48.171Z,0.1
2018-01-14T06:34:53.620Z,0.1
2018-01-14T06:35:57.177Z,0.1
2018-01-14T06:37:01.153Z,0.1
2018-01-14T06:38:05.299Z,0.1
2018-01-14T06:39:09.356Z,0.1
2018-01-14T06:40:13.415Z,0.1
2018-01-14T06:41:19.725Z,0.1
2018-01-14T06:42:24.507Z,0.1
2018-01-14T06:43:34.316Z,0.1
2018-01-14T06:44:39.754Z,0.1
2018-01-14T06:45:43.219Z,0.1
2018-01-14T06:46:48.958Z,0.1
2018-01-14T06:47:55.643Z,0.1
2018-01-14T06:48:59.611Z,0
2018-01-14T06:50:05.421Z,0.1
2018-01-14T06:51:12.672Z,0.1
2018-01-14T06:52:16.789Z,0.1
2018-01-14T06:53:21.610Z,0
2018-01-14T06:54:29.053Z,0
2018-01-14T06:55:32.623Z,0
2018-01-14T06:56:35.941Z,0
2018-01-14T06:57:39.836Z,0
2018-01-14T06:58:46.131Z,0.1
2018-01-14T06:59:51.605Z,0.1
2018-01-14T07:00:54.755Z,0.2
2018-01-14T07:01:58.274Z,0.1
2018-01-14T07:03:03.193Z,0.1
2018-01-14T07:04:09.513Z,0.1
2018-01-14T07:05:20.366Z,0.1
2018-01-14T07:06:25.722Z,0.1
2018-01-14T07:07:30.661Z,0.1
2018-01-14T07:08:34.000Z,0.1
2018-01-14T07:09:39.521Z,0.1
2018-01-14T07:10:42.951Z,0.2
2018-01-14T07:11:47.115Z,0.1
2018-01-14T07:12:53.488Z,0.1
2018-01-14T07:13:58.869Z,0.1
2018-01-14T07:15:05.239Z,0
2018-01-14T07:16:13.638Z,0.1
2018-01-14T07:17:19.178Z,0.1
2018-01-14T07:18:23.341Z,0.1
2018-01-14T07:19:30.718Z,0.1
2018-01-14T07:20:34.022Z,0
2018-01-14T07:21:38.039Z,0
2018-01-14T07:22:42.724Z,0.1
2018-01-14T07:23:50.867Z,0
2018-01-14T07:24:55.422Z,0
2018-01-14T07:25:59.698Z,0.1
2018-01-14T07:27:09.112Z,0.1
2018-01-14T07:28:15.305Z,0.1
2018-01-14T07:29:20.027Z,0
2018-01-14T07:30:26.993Z,0
2018-01-14T07:31:31.774Z,0
2018-01-14T07:32:37.006Z,0
2018-01-14T07:33:44.052Z,0.1
2018-01-14T07:34:49.057Z,0.1
2018-01-14T07:35:55.614Z,0
2018-01-14T07:37:00.159Z,0
2018-01-14T07:38:12.341Z,0
2018-01-14T07:39:15.691Z,0
2018-01-14T07:40:19.090Z,0
2018-01-14T07:41:24.429Z,0
2018-01-14T07:42:28.352Z,0
2018-01-14T07:43:33.674Z,0
2018-01-14T07:44:39.523Z,0
2018-01-14T07:45:44.412Z,0
2018-01-14T07:46:49.887Z,0
2018-01-14T07:47:56.213Z,-0.1
2018-01-14T07:49:08.081Z,0
2018-01-14T07:50:13.587Z,0
2018-01-14T07:51:21.990Z,0
2018-01-14T07:52:27.676Z,0
2018-01-14T07:53:31.680Z,0
2018-01-14T07:54:35.640Z,0
2018-01-14T07:55:40.962Z,0
2018-01-14T07:56:44.404Z,0
2018-01-14T07:57:50.553Z,0
2018-01-14T07:58:58.338Z,0
2018-01-14T08:00:11.504Z,0
2018-01-14T08:01:15.914Z,0
2018-01-14T08:02:23.574Z,0
2018-01-14T08:03:28.145Z,0
2018-01-14T08:04:33.941Z,0
2018-01-14T08:05:38.429Z,0
2018-01-14T08:06:44.818Z,0.1
2018-01-14T08:07:50.335Z,0.1
2018-01-14T08:08:56.719Z,0.1
2018-01-14T08:10:00.855Z,0.1
2018-01-14T08:11:19.576Z,0.1
2018-01-14T08:12:25.568Z,0.1
2018-01-14T08:13:32.607Z,0.2
2018-01-14T08:14:35.944Z,0.2
2018-01-14T08:15:39.892Z,0.2
2018-01-14T08:16:43.421Z,0.2
2018-01-14T08:17:47.083Z,0.2
2018-01-14T08:18:51.452Z,0.2
2018-01-14T08:19:55.037Z,0.2
2018-01-14T08:20:59.863Z,0.2
2018-01-14T08:22:07.570Z,0.2
2018-01-14T08:23:11.052Z,0.2
2018-01-14T08:24:14.409Z,0.2
2018-01-14T08:25:18.507Z,0.2
2018-01-14T08:26:22.916Z,0.2
2018-01-14T08:27:27.073Z,0.2
2018-01-14T08:28:31.206Z,0.2
2018-01-14T08:29:37.307Z,0.2
2018-01-14T08:30:42.340Z,0.2
2018-01-14T08:31:49.732Z,0.2
2018-01-14T08:33:31.299Z,0.2
2018-01-14T08:34:37.797Z,0.2
2018-01-14T08:35:42.894Z,0.2
2018-01-14T08:36:48.557Z,0.3
2018-01-14T08:37:53.335Z,0.3
2018-01-14T08:38:57.203Z,0.3
2018-01-14T08:40:02.357Z,0.3
2018-01-14T08:41:07.283Z,0.4
2018-01-14T08:42:12.234Z,0.4
2018-01-14T08:43:17.476Z,0.4
2018-01-14T08:44:33.634Z,0.4
2018-01-14T08:45:39.559Z,0.4
2018-01-14T08:46:45.112Z,0.4
2018-01-14T08:47:50.841Z,0.5
2018-01-14T08:48:55.037Z,0.5
2018-01-14T08:49:59.621Z,0.5
2018-01-14T08:51:05.641Z,0.5
2018-01-14T08:52:09.214Z,0.3
2018-01-14T08:53:14.534Z,0.5
2018-01-14T08:54:20.010Z,0.5
2018-01-14T08:55:29.386Z,0.5
2018-01-14T08:56:34.641Z,0.5
2018-01-14T08:57:39.545Z,0.5
2018-01-14T08:58:46.344Z,0.5
2018-01-14T08:59:49.842Z,0.5
2018-01-14T09:00:55.776Z,0.4
2018-01-14T09:02:00.563Z,0.4
2018-01-14T09:03:04.488Z,0.4
2018-01-14T09:04:09.646Z,0.4
2018-01-14T09:05:13.150Z,0.5
2018-01-14T09:06:22.208Z,0.5
2018-01-14T09:07:33.305Z,0.5
2018-01-14T09:08:37.245Z,0.5
2018-01-14T09:09:41.753Z,0.5
2018-01-14T09:10:46.490Z,0.5
2018-01-14T09:11:54.802Z,0.5
2018-01-14T09:12:58.883Z,0.6
2018-01-14T09:14:03.537Z,0.6
2018-01-14T09:15:10.209Z,0.6
2018-01-14T09:16:17.909Z,0.6
2018-01-14T09:17:27.728Z,0.6
2018-01-14T09:18:31.862Z,0.6
2018-01-14T09:19:37.285Z,0.6
2018-01-14T09:20:40.693Z,0.6
2018-01-14T09:21:46.865Z,0.4
2018-01-14T09:22:52.531Z,0.6
2018-01-14T09:23:59.784Z,0.6
2018-01-14T09:25:06.361Z,0.6
2018-01-14T09:26:13.439Z,0.6
2018-01-14T09:27:18.462Z,0.7
2018-01-14T09:29:06.726Z,0.6
2018-01-14T09:30:24.634Z,0.6
2018-01-14T09:31:37.624Z,0.7
2018-01-14T09:32:45.381Z,0.7
2018-01-14T09:33:53.848Z,0.7
2018-01-14T09:35:12.419Z,0.8
2018-01-14T09:36:21.276Z,0.8
2018-01-14T09:37:39.211Z,0.8
2018-01-14T09:38:49.386Z,0.8
2018-01-14T09:39:56.367Z,0.8
2018-01-14T09:41:49.517Z,0.7
2018-01-14T09:42:55.447Z,0.6
2018-01-14T09:44:06.974Z,0.6
2018-01-14T09:45:18.692Z,0.6
2018-01-14T09:46:23.377Z,0.6
2018-01-14T09:47:26.706Z,0.7
2018-01-14T09:48:29.962Z,0.6
2018-01-14T09:49:34.357Z,0.6
2018-01-14T09:50:38.391Z,0.7
2018-01-14T09:51:41.885Z,0.7
2018-01-14T09:52:49.299Z,0.6
2018-01-14T09:53:52.846Z,0.6
2018-01-14T09:54:56.380Z,0.5
2018-01-14T09:56:01.282Z,0.6
2018-01-14T09:57:04.829Z,0.6
2018-01-14T09:58:09.530Z,0.6
2018-01-14T09:59:13.458Z,0.6
2018-01-14T10:00:17.008Z,0.6
2018-01-14T10:01:20.549Z,0.6
2018-01-14T10:02:24.708Z,0.6
2018-01-14T10:03:31.578Z,0.6
2018-01-14T10:04:36.170Z,0.6
2018-01-14T10:05:39.660Z,0.7
2018-01-14T10:06:43.190Z,0.7
2018-01-14T10:07:46.748Z,0.5
2018-01-14T10:08:51.734Z,0.6
2018-01-14T10:09:55.221Z,0.7
2018-01-14T10:10:59.365Z,0.7
2018-01-14T10:12:03.470Z,0.7
2018-01-14T10:13:07.172Z,0.7
2018-01-14T10:14:15.076Z,0.7
2018-01-14T10:15:19.500Z,0.6
2018-01-14T10:16:22.981Z,0.6
2018-01-14T10:17:26.554Z,0.7
2018-01-14T10:18:30.134Z,0.6
2018-01-14T10:19:33.652Z,0.6
2018-01-14T10:20:37.217Z,0.6
2018-01-14T10:21:41.186Z,0.6
2018-01-14T10:22:44.694Z,0.7
2018-01-14T10:23:48.917Z,0.7
2018-01-14T10:24:58.588Z,0.8
2018-01-14T10:26:02.172Z,0.8
2018-01-14T10:27:05.888Z,0.8
2018-01-14T10:28:10.885Z,0.9
2018-01-14T10:29:14.450Z,0.9
2018-01-14T10:30:24.704Z,0.9
2018-01-14T10:31:28.212Z,1
2018-01-14T10:32:31.799Z,0.8
2018-01-14T10:33:37.190Z,1.1
2018-01-14T10:34:40.701Z,1.1
2018-01-14T10:35:49.049Z,1
2018-01-14T10:36:53.338Z,1
2018-01-14T10:37:56.863Z,1
2018-01-14T10:39:00.369Z,1.1
2018-01-14T10:40:04.088Z,1.1
2018-01-14T10:41:09.090Z,1.1
2018-01-14T10:42:12.521Z,1.1
2018-01-14T10:43:18.296Z,1.1
2018-01-14T10:44:23.072Z,1.1
2018-01-14T10:45:28.460Z,1.1
2018-01-14T10:46:36.877Z,1.1
2018-01-14T10:47:41.651Z,1.1
2018-01-14T10:48:45.720Z,1.1
2018-01-14T10:50:00.365Z,1.2
2018-01-14T10:51:03.981Z,1.2
2018-01-14T10:52:07.468Z,1.3
2018-01-14T10:53:11.523Z,1.3
2018-01-14T10:54:15.727Z,1.3
2018-01-14T10:55:19.309Z,1.4
2018-01-14T10:56:24.472Z,1.4
2018-01-14T10:57:32.234Z,1.4
2018-01-14T10:58:36.349Z,1.4
2018-01-14T10:59:39.763Z,1.4
2018-01-14T11:00:43.865Z,1.4
2018-01-14T11:01:48.987Z,1.4
2018-01-14T11:02:54.536Z,1.4
2018-01-14T11:03:59.321Z,1.4
2018-01-14T11:05:03.613Z,1.4
2018-01-14T11:06:10.212Z,1.4
2018-01-14T11:07:14.507Z,1.4
2018-01-14T11:08:22.378Z,1.4
2018-01-14T11:09:25.942Z,1.4
2018-01-14T11:10:29.610Z,1.4
2018-01-14T11:11:35.599Z,1.3
2018-01-14T11:12:40.703Z,1.4
2018-01-14T11:13:44.854Z,1.4
2018-01-14T11:14:48.826Z,1.3
2018-01-14T11:15:53.210Z,1.4
2018-01-14T11:16:57.695Z,1.4
2018-01-14T11:18:01.079Z,1.4
2018-01-14T11:19:55.030Z,1.4
2018-01-14T11:21:03.376Z,1.4
2018-01-14T11:22:09.735Z,1.4
2018-01-14T11:23:14.276Z,1.4
2018-01-14T11:24:19.445Z,1.5
2018-01-14T11:25:25.484Z,1.6
2018-01-14T11:26:31.132Z,1.6
2018-01-14T11:27:36.520Z,1.6
2018-01-14T11:28:40.771Z,1.5
2018-01-14T11:29:45.204Z,1.5
2018-01-14T11:30:52.135Z,1.6
2018-01-14T11:31:55.532Z,1.6
2018-01-14T11:32:59.723Z,1.7
2018-01-14T11:34:03.397Z,1.6
2018-01-14T11:35:07.604Z,1.6
2018-01-14T11:36:12.479Z,1.6
2018-01-14T11:37:16.155Z,1.6
2018-01-14T11:38:20.382Z,1.6
2018-01-14T11:39:25.410Z,1.6
2018-01-14T11:40:28.998Z,1.6
2018-01-14T11:41:38.557Z,1.6
2018-01-14T11:42:42.204Z,1.6
2018-01-14T11:43:46.841Z,1.6
2018-01-14T11:44:50.276Z,1.7
2018-01-14T11:45:53.902Z,1.7
2018-01-14T11:46:57.577Z,1.6
2018-01-14T11:48:02.338Z,1.6
2018-01-14T11:49:06.399Z,1.5
2018-01-14T11:50:10.955Z,1.7
2018-01-14T11:51:14.405Z,1.6
2018-01-14T11:52:22.648Z,1.6
2018-01-14T11:53:25.940Z,1.6
2018-01-14T11:54:30.783Z,1.7
2018-01-14T11:55:35.145Z,1.7
2018-01-14T11:56:38.713Z,1.7
2018-01-14T11:57:41.896Z,1.7
2018-01-14T11:58:45.924Z,1.8
2018-01-14T11:59:49.509Z,1.7
2018-01-14T12:00:53.925Z,1.7
2018-01-14T12:01:57.354Z,1.7
2018-01-14T12:03:05.299Z,1.7
2018-01-14T12:04:09.261Z,1.9
2018-01-14T12:05:13.563Z,1.8
2018-01-14T12:06:16.913Z,1.7
2018-01-14T12:07:21.070Z,1.7
2018-01-14T12:08:24.582Z,1.7
2018-01-14T12:09:29.398Z,1.8
2018-01-14T12:10:33.757Z,1.8
2018-01-14T12:11:37.282Z,1.9
2018-01-14T12:12:41.473Z,1.9
2018-01-14T12:13:50.798Z,1.9
2018-01-14T12:14:54.716Z,1.8
2018-01-14T12:15:58.523Z,1.9
2018-01-14T12:17:03.059Z,1.9
2018-01-14T12:18:07.732Z,2
2018-01-14T12:19:13.244Z,2
2018-01-14T12:20:19.922Z,2
2018-01-14T12:21:24.021Z,2
2018-01-14T12:22:28.565Z,2
2018-01-14T12:23:32.200Z,2
2018-01-14T12:25:46.121Z,2
2018-01-14T12:26:51.120Z,2.1
2018-01-14T12:27:55.813Z,2
2018-01-14T12:29:02.188Z,2
2018-01-14T12:30:05.647Z,2
2018-01-14T12:31:09.161Z,2
2018-01-14T12:32:13.349Z,2
2018-01-14T12:33:19.230Z,2
2018-01-14T12:34:24.482Z,1.9
2018-01-14T12:35:28.482Z,1.9
2018-01-14T12:36:36.887Z,1.9
2018-01-14T12:37:46.373Z,2
2018-01-14T12:38:50.803Z,2
2018-01-14T12:39:55.487Z,2.1
2018-01-14T12:41:00.580Z,2
2018-01-14T12:42:06.358Z,2.1
2018-01-14T12:43:09.918Z,2
2018-01-14T12:44:14.401Z,2
2018-01-14T12:45:18.008Z,2
2018-01-14T12:46:23.672Z,2
2018-01-14T12:47:31.398Z,2
2018-01-14T12:48:35.069Z,2
2018-01-14T12:49:38.510Z,1.9
2018-01-14T12:50:42.901Z,1.9
2018-01-14T12:51:46.476Z,2
2018-01-14T12:52:50.971Z,2
2018-01-14T12:53:54.438Z,2
2018-01-14T12:54:59.962Z,2
2018-01-14T12:56:03.391Z,2.1
2018-01-14T12:57:07.727Z,2.1
2018-01-14T12:58:15.332Z,2.1
2018-01-14T12:59:19.031Z,2.2
2018-01-14T13:00:23.179Z,2.2
2018-01-14T13:01:27.403Z,2.1
2018-01-14T13:02:31.022Z,2.1
2018-01-14T13:03:35.134Z,2.1
2018-01-14T13:04:38.583Z,2.1
2018-01-14T13:05:42.965Z,2
2018-01-14T13:06:46.442Z,2
2018-01-14T13:07:49.954Z,2.1
2018-01-14T13:08:59.192Z,2.1
2018-01-14T13:10:03.281Z,2.1
2018-01-14T13:11:06.782Z,2.1
2018-01-14T13:12:10.326Z,2.1
2018-01-14T13:13:13.727Z,2.1
2018-01-14T13:14:17.063Z,2.1
2018-01-14T13:15:22.076Z,2.1
2018-01-14T13:16:25.401Z,2.1
2018-01-14T13:17:30.176Z,2.1
2018-01-14T13:18:34.268Z,2.1
2018-01-14T13:19:42.595Z,2.1
2018-01-14T13:20:47.041Z,2.1
2018-01-14T13:21:51.191Z,2.1
2018-01-14T13:22:55.417Z,2.1
2018-01-14T13:23:58.832Z,2.1
2018-01-14T13:25:02.323Z,2.1
2018-01-14T13:26:07.378Z,2.1
2018-01-14T13:27:10.986Z,2.2
2018-01-14T13:28:15.053Z,2.2
2018-01-14T13:29:19.145Z,2.3
2018-01-14T13:30:27.532Z,2.3
2018-01-14T13:31:32.574Z,2.3
2018-01-14T13:32:36.033Z,2.3
2018-01-14T13:33:39.558Z,2.3
2018-01-14T13:34:44.160Z,2.3
2018-01-14T13:35:49.110Z,2.2
2018-01-14T13:36:54.152Z,2.2
2018-01-14T13:37:57.749Z,2.2
2018-01-14T13:39:01.372Z,2.3
2018-01-14T13:40:04.774Z,2.3
2018-01-14T13:41:11.734Z,2.2
2018-01-14T13:42:15.726Z,2.2
2018-01-14T13:43:19.076Z,2.1
2018-01-14T13:44:22.521Z,2.2
2018-01-14T13:45:26.022Z,2.2
2018-01-14T13:46:29.409Z,2.2
2018-01-14T13:47:32.854Z,2.2
2018-01-14T13:48:36.297Z,2.1
2018-01-14T13:49:40.725Z,2.1
2018-01-14T13:50:44.872Z,2.2
2018-01-14T13:51:52.425Z,2.1
2018-01-14T13:52:56.387Z,2.2
2018-01-14T13:53:59.700Z,2.2
2018-01-14T13:55:12.993Z,2.2
2018-01-14T13:56:18.200Z,2.2
2018-01-14T13:57:22.800Z,2.3
2018-01-14T13:58:26.445Z,2.3
2018-01-14T13:59:29.920Z,2.2
2018-01-14T14:00:33.353Z,2.2
2018-01-14T14:01:36.775Z,2.2
2018-01-14T14:02:44.347Z,2.2
2018-01-14T14:03:47.684Z,2.1
2018-01-14T14:04:51.121Z,2.2
2018-01-14T14:05:55.256Z,2.1
2018-01-14T14:07:00.046Z,2.3
2018-01-14T14:08:03.943Z,2.2
2018-01-14T14:09:11.871Z,2.2
2018-01-14T14:10:17.897Z,2.2
2018-01-14T14:11:28.255Z,2.3
2018-01-14T14:12:32.253Z,2.3
2018-01-14T14:13:39.950Z,2.3
2018-01-14T14:14:43.336Z,2.4
2018-01-14T14:15:47.049Z,2.3
2018-01-14T14:16:50.520Z,2.3
2018-01-14T14:17:53.972Z,2.3
2018-01-14T14:18:57.355Z,2.2
2018-01-14T14:20:00.668Z,2.2
2018-01-14T14:21:04.137Z,2.1
2018-01-14T14:22:07.616Z,2.1
2018-01-14T14:23:11.873Z,2.1
2018-01-14T14:24:18.695Z,2.1
2018-01-14T14:25:22.140Z,2.1
2018-01-14T14:26:25.507Z,2.1
2018-01-14T14:27:28.956Z,2.1
2018-01-14T14:28:32.706Z,2.1
2018-01-14T14:29:36.072Z,2.1
2018-01-14T14:30:39.384Z,2.1
2018-01-14T14:31:44.173Z,2.1
2018-01-14T14:32:47.669Z,2.1
2018-01-14T14:33:52.448Z,2.2
2018-01-14T14:35:00.435Z,2.2
2018-01-14T14:36:03.770Z,2.2
2018-01-14T14:37:07.484Z,2.2
2018-01-14T14:38:12.225Z,2.2
2018-01-14T14:39:16.323Z,2.1
2018-01-14T14:40:20.876Z,1.9
2018-01-14T14:41:26.076Z,2
2018-01-14T14:42:30.347Z,1.9
2018-01-14T14:43:33.667Z,2.2
2018-01-14T14:44:37.713Z,2.1
2018-01-14T14:45:48.427Z,2.2
2018-01-14T14:46:55.026Z,2.2
2018-01-14T14:47:59.102Z,2.2
2018-01-14T14:49:03.633Z,2.2
2018-01-14T14:50:07.178Z,2.2
2018-01-14T14:51:10.597Z,2.2
2018-01-14T14:52:14.975Z,2.2
2018-01-14T14:53:19.364Z,2.2
2018-01-14T14:54:23.586Z,2.1
2018-01-14T14:55:28.090Z,2
2018-01-14T14:56:36.543Z,2
2018-01-14T14:57:40.042Z,2
2018-01-14T14:58:43.795Z,1.9
2018-01-14T14:59:47.331Z,1.8
2018-01-14T15:00:52.200Z,1.9
2018-01-14T15:01:55.532Z,2
2018-01-14T15:02:59.511Z,2
2018-01-14T15:04:02.967Z,2
2018-01-14T15:05:07.533Z,2
2018-01-14T15:06:10.989Z,2
2018-01-14T15:07:20.889Z,2
2018-01-14T15:08:24.987Z,2
2018-01-14T15:09:28.650Z,2
2018-01-14T15:10:32.995Z,2
2018-01-14T15:11:37.788Z,2